.
WxDataArchive / Data Records for 2015-03-30
2015-03-29 March 2015 2015-03-31

Data Records for Monday, 30 March 2015

Time	Temp	Chill	HIndex	Humid	Dewpt	 Wind 	HiWind	WindDir	Rain 	Barom
-----	----	-----	------	-----	-----	------	------	-------	-----	-----
00:00	45.5	45.5	45.5	70	36.3	3	9	270	0.00	29.845 
00:05	45.5	43.7	45.5	70	36.3	4	9	270	0.00	29.845 
00:10	45.5	43.7	45.5	70	36.3	4	9	270	0.00	29.845 
00:15	45.5	42.9	45.5	70	36.3	5	12	270	0.00	29.857 
00:20	45.4	43.6	45.4	70	36.2	4	7	270	0.00	29.857 
00:25	45.1	43.2	45.1	70	35.9	4	8	270	0.00	29.857 
00:30	44.9	43.0	44.9	70	35.7	4	8	270	0.00	29.860 
00:35	44.6	44.6	44.6	70	35.4	2	6	270	0.00	29.860 
00:40	44.6	44.6	44.6	69	35.1	3	6	270	0.00	29.860 
00:45	44.6	44.6	44.6	68	34.7	3	7	270	0.00	29.861 
00:50	44.5	44.5	44.5	68	34.6	2	6	338	0.00	29.861 
00:55	44.5	44.5	44.5	66	33.9	3	6	270	0.00	29.861 
01:00	44.5	44.5	44.5	65	33.5	3	5	270	0.00	29.861 
01:05	44.5	44.5	44.5	65	33.5	2	5	270	0.00	29.861 
01:10	44.2	44.2	44.2	65	33.2	2	6	292	0.00	29.861 
01:15	44.1	44.1	44.1	65	33.1	2	6	270	0.00	29.862 
01:20	43.8	43.8	43.8	65	32.8	2	5	270	0.00	29.862 
01:25	43.6	43.6	43.6	65	32.6	1	4	292	0.00	29.862 
01:30	43.3	43.3	43.3	66	32.7	2	6	292	0.00	29.867 
01:35	43.3	43.3	43.3	66	32.7	2	4	270	0.00	29.867 
01:40	43.3	43.3	43.3	67	33.1	1	4	270	0.00	29.867 
01:45	43.3	43.3	43.3	67	33.1	2	4	248	0.00	29.874 
01:50	43.3	43.3	43.3	67	33.1	2	3	248	0.00	29.874 
01:55	43.2	43.2	43.2	67	33.0	1	5	270	0.00	29.874 
02:00	43.1	43.1	43.1	68	33.3	2	4	270	0.00	29.879 
02:05	43.1	43.1	43.1	68	33.3	2	3	270	0.00	29.879 
02:10	43.1	43.1	43.1	69	33.6	2	4	270	0.00	29.879 
02:15	42.8	42.8	42.8	69	33.3	2	3	270	0.00	29.888 
02:20	42.6	42.6	42.6	70	33.5	1	3	270	0.00	29.888 
02:25	42.5	42.5	42.5	71	33.8	2	5	270	0.00	29.888 
02:30	42.5	42.5	42.5	71	33.8	2	4	270	0.00	29.892 
02:35	42.5	42.5	42.5	71	33.8	3	4	270	0.00	29.892 
02:40	42.5	42.5	42.5	70	33.4	2	4	270	0.00	29.892 
02:45	42.3	42.3	42.3	70	33.2	2	4	270	0.00	29.893 
02:50	42.2	42.2	42.2	70	33.1	2	4	248	0.00	29.893 
02:55	42.1	42.1	42.1	70	33.0	2	4	248	0.00	29.893 
03:00	41.8	41.8	41.8	70	32.7	2	5	248	0.00	29.896 
03:05	41.8	41.8	41.8	70	32.7	2	4	270	0.00	29.896 
03:10	41.6	41.6	41.6	70	32.6	2	4	270	0.00	29.896 
03:15	41.5	41.5	41.5	70	32.5	2	4	292	0.00	29.900 
03:20	41.2	41.2	41.2	70	32.2	1	4	270	0.00	29.900 
03:25	41.2	41.2	41.2	69	31.8	2	6	270	0.00	29.900 
03:30	41.1	41.1	41.1	69	31.7	2	4	270	0.00	29.907 
03:35	40.9	40.9	40.9	69	31.5	2	4	270	0.00	29.907 
03:40	40.8	40.8	40.8	69	31.4	2	4	270	0.00	29.907 
03:45	40.6	40.6	40.6	69	31.2	2	4	270	0.00	29.910 
03:50	40.5	40.5	40.5	69	31.1	1	3	270	0.00	29.910 
03:55	40.3	40.3	40.3	69	31.0	1	4	248	0.00	29.910 
04:00	40.2	40.2	40.2	69	30.9	1	2	248	0.00	29.913 
04:05	40.1	40.1	40.1	69	30.8	1	4	248	0.00	29.913 
04:10	39.9	39.9	39.9	69	30.6	1	3	292	0.00	29.913 
04:15	39.8	39.8	39.8	69	30.5	1	2	292	0.00	29.916 
04:20	39.6	39.6	39.6	69	30.3	1	2	292	0.00	29.916 
04:25	39.3	39.3	39.3	69	30.0	0	1	292	0.00	29.916 
04:30	39.1	39.1	39.1	70	30.2	0	2	292	0.00	29.914 
04:35	38.9	38.9	38.9	70	30.0	1	3	292	0.00	29.914 
04:40	38.8	38.8	38.8	70	29.9	1	2	292	0.00	29.914 
04:45	38.8	38.8	38.8	70	29.9	1	3	292	0.00	29.915 
04:50	38.6	38.6	38.6	70	29.7	1	2	292	0.00	29.915 
04:55	38.5	38.5	38.5	70	29.6	0	2	292	0.00	29.915 
05:00	38.5	38.5	38.5	70	29.6	0	2	292	0.00	29.915 
05:05	38.2	38.2	38.2	70	29.3	0	3	292	0.00	29.915 
05:10	38.0	38.0	38.0	71	29.4	0	1	292	0.00	29.915 
05:15	37.8	37.8	37.8	71	29.3	0	2	292	0.00	29.917 
05:20	37.6	37.6	37.6	71	29.1	0	1	292	0.00	29.917 
05:25	37.5	37.5	37.5	72	29.3	0	1	292	0.00	29.917 
05:30	37.5	37.5	37.5	72	29.3	0	1	292	0.00	29.915 
05:35	37.5	37.5	37.5	72	29.3	0	1	292	0.00	29.915 
05:40	37.5	37.5	37.5	71	29.0	0	2	292	0.00	29.915 
05:45	37.5	37.5	37.5	71	29.0	0	3	292	0.00	29.917 
05:50	37.5	37.5	37.5	71	29.0	0	2	292	0.00	29.917 
05:55	37.5	37.5	37.5	71	29.0	0	2	292	0.00	29.917 
06:00	37.5	37.5	37.5	71	29.0	0	2	292	0.00	29.920 
06:05	37.3	37.3	37.3	71	28.8	0	1	292	0.00	29.920 
06:10	37.2	37.2	37.2	71	28.7	0	3	292	0.00	29.920 
06:15	37.3	37.3	37.3	71	28.8	1	3	292	0.00	29.922 
06:20	37.6	37.6	37.6	71	29.1	1	2	292	0.00	29.922 
06:25	37.6	37.6	37.6	71	29.1	0	2	292	0.00	29.922 
06:30	37.5	37.5	37.5	71	29.0	0	2	292	0.00	29.929 
06:35	37.5	37.5	37.5	71	29.0	0	2	292	0.00	29.929 
06:40	37.6	37.6	37.6	71	29.1	1	2	292	0.00	29.929 
06:45	37.8	37.8	37.8	70	28.9	1	2	292	0.00	29.934 
06:50	37.8	37.8	37.8	70	28.9	1	3	292	0.00	29.934 
06:55	37.8	37.8	37.8	70	28.9	1	3	270	0.00	29.934 
07:00	37.9	37.9	37.9	69	28.7	1	3	270	0.00	29.941 
07:05	37.9	37.9	37.9	69	28.7	1	3	270	0.00	29.941 
07:10	37.9	37.9	37.9	69	28.7	1	2	270	0.00	29.941 
07:15	37.8	37.8	37.8	69	28.6	0	2	270	0.00	29.947 
07:20	37.6	37.6	37.6	69	28.4	0	2	270	0.00	29.947 
07:25	37.6	37.6	37.6	69	28.4	0	2	270	0.00	29.947 
07:30	37.5	37.5	37.5	69	28.3	0	1	270	0.00	29.955 
07:35	37.3	37.3	37.3	69	28.1	0	1	270	0.00	29.955 
07:40	37.3	37.3	37.3	70	28.4	0	2	270	0.00	29.955 
07:45	37.2	37.2	37.2	70	28.3	0	2	270	0.00	29.964 
07:50	37.0	37.0	37.0	71	28.5	0	0	---	0.00	29.964 
07:55	36.9	36.9	36.9	71	28.4	0	1	270	0.00	29.964 
08:00	36.9	36.9	36.9	72	28.7	0	1	270	0.00	29.967 
08:05	36.9	36.9	36.9	73	29.1	0	1	270	0.00	29.967 
08:10	37.0	37.0	37.0	73	29.2	0	1	270	0.00	29.967 
08:15	37.3	37.3	37.3	73	29.5	0	2	270	0.00	29.978 
08:20	37.6	37.6	37.6	73	29.7	0	2	270	0.00	29.978 
08:25	37.9	37.9	37.9	73	30.0	0	2	270	0.00	29.978 
08:30	38.0	38.0	38.0	73	30.1	0	1	270	0.00	29.986 
08:35	38.5	38.5	38.5	73	30.6	1	3	270	0.00	29.986 
08:40	38.8	38.8	38.8	73	30.9	1	2	270	0.00	29.986 
08:45	39.2	39.2	39.2	72	30.9	1	2	270	0.00	29.990 
08:50	39.5	39.5	39.5	72	31.2	1	3	270	0.00	29.990 
08:55	39.9	39.9	39.9	72	31.6	1	2	270	0.00	29.990 
09:00	40.3	40.3	40.3	71	31.7	1	3	270	0.00	29.993 
09:05	40.6	40.6	40.6	71	31.9	1	3	270	0.00	29.993 
09:10	40.9	40.9	40.9	70	31.9	2	4	270	0.00	29.993 
09:15	41.1	41.1	41.1	69	31.7	2	5	292	0.00	29.994 
09:20	41.3	41.3	41.3	69	31.9	2	4	270	0.00	29.994 
09:25	41.6	41.6	41.6	68	31.8	2	3	270	0.00	29.994 
09:30	41.8	41.8	41.8	68	32.0	2	4	270	0.00	30.000 
09:35	42.1	42.1	42.1	67	31.9	1	3	248	0.00	30.000 
09:40	42.3	42.3	42.3	66	31.8	1	4	248	0.00	30.000 
09:45	42.8	42.8	42.8	65	31.9	1	3	270	0.00	30.003 
09:50	43.2	43.2	43.2	65	32.2	1	3	292	0.00	30.003 
09:55	43.3	43.3	43.3	62	31.2	2	5	270	0.00	30.003 
10:00	43.8	43.8	43.8	62	31.6	2	6	315	0.00	30.005 
10:05	44.1	44.1	44.1	61	31.5	2	4	315	0.00	30.005 
10:10	44.5	44.5	44.5	58	30.7	2	5	270	0.00	30.005 
10:15	44.8	44.8	44.8	56	30.1	3	7	248	0.00	30.010 
10:20	45.2	45.2	45.2	58	31.3	2	4	270	0.00	30.010 
10:25	45.7	45.7	45.7	56	30.9	2	3	270	0.00	30.010 
10:30	46.1	46.1	46.1	57	31.7	1	4	270	0.00	30.013 
10:35	46.5	46.5	46.5	55	31.2	1	4	270	0.00	30.013 
10:40	46.7	46.7	46.7	53	30.5	2	6	315	0.00	30.013 
10:45	47.1	47.1	47.1	51	29.9	2	4	248	0.00	30.018 
10:50	47.4	47.4	47.4	49	29.2	2	6	292	0.00	30.018 
10:55	47.7	47.7	47.7	48	29.0	2	5	292	0.00	30.018 
11:00	48.2	48.2	48.2	48	29.4	2	5	270	0.00	30.016 
11:05	48.8	48.8	48.8	47	29.5	2	4	270	0.00	30.016 
11:10	49.2	49.2	49.2	48	30.4	1	4	270	0.00	30.016 
11:15	49.2	49.2	49.2	45	28.8	3	9	292	0.00	30.014 
11:20	49.2	49.2	49.2	44	28.2	3	6	270	0.00	30.014 
11:25	49.2	49.2	49.2	45	28.8	3	6	270	0.00	30.014 
11:30	49.5	49.5	49.5	43	27.9	3	7	270	0.00	30.013 
11:35	49.8	49.8	49.8	42	27.6	3	8	270	0.00	30.013 
11:40	49.8	49.8	49.8	42	27.6	3	9	270	0.00	30.013 
11:45	50.1	50.1	50.1	42	27.9	2	6	270	0.00	30.014 
11:50	50.5	50.5	50.5	42	28.3	4	9	270	0.00	30.014 
11:55	50.8	50.8	50.8	41	28.0	3	7	292	0.00	30.014 
12:00	50.8	50.8	50.8	39	26.7	4	10	270	0.00	30.013 
12:05	50.8	50.8	50.8	40	27.4	4	9	270	0.00	30.013 
12:10	51.0	51.0	51.0	39	26.9	3	7	270	0.00	30.013 
12:15	51.3	51.3	51.3	38	26.6	3	7	270	0.00	30.010 
12:20	51.3	51.3	51.3	37	25.9	4	6	270	0.00	30.010 
12:25	51.6	51.6	51.6	37	26.2	4	9	315	0.00	30.010 
12:30	51.4	51.4	51.4	35	24.7	4	7	270	0.00	30.010 
12:35	51.6	51.6	51.6	37	26.2	4	9	292	0.00	30.010 
12:40	52.0	52.0	52.0	36	25.9	3	9	338	0.00	30.010 
12:45	52.2	52.2	52.2	37	26.7	4	11	270	0.00	30.008 
12:50	52.5	52.5	52.5	36	26.3	4	11	270	0.00	30.008 
12:55	53.2	53.2	53.2	36	26.9	2	6	270	0.00	30.008 
13:00	53.5	53.5	53.5	34	25.8	4	10	270	0.00	30.006 
13:05	53.1	53.1	53.1	35	26.2	3	6	270	0.00	30.006 
13:10	53.3	53.3	53.3	32	24.2	4	13	292	0.00	30.006 
13:15	53.5	53.5	53.5	31	23.6	4	10	292	0.00	29.998 
13:20	53.8	53.8	53.8	33	25.4	3	11	315	0.00	29.998 
13:25	54.1	54.1	54.1	34	26.4	4	7	292	0.00	29.998 
13:30	54.4	54.4	54.4	33	25.9	3	9	315	0.00	29.999 
13:35	54.4	54.4	54.4	31	24.4	3	9	292	0.00	29.999 
13:40	54.2	54.2	54.2	33	25.7	3	6	270	0.00	29.999 
13:45	54.1	54.1	54.1	32	24.9	4	10	270	0.00	29.996 
13:50	54.4	54.4	54.4	32	25.2	4	11	270	0.00	29.996 
13:55	54.7	54.7	54.7	32	25.4	4	9	270	0.00	29.996 
14:00	55.0	55.0	55.0	32	25.7	3	7	270	0.00	29.990 
14:05	55.6	55.6	55.6	34	27.7	2	4	292	0.00	29.990 
14:10	55.9	55.9	55.9	31	25.7	4	7	270	0.00	29.990 
14:15	55.9	55.9	55.9	28	23.3	5	10	292	0.00	29.977 
14:20	56.0	56.0	56.0	28	23.4	4	10	270	0.00	29.977 
14:25	56.2	56.2	56.2	28	23.5	4	7	292	0.00	29.977 
14:30	56.0	56.0	56.0	28	23.4	4	12	315	0.00	29.973 
14:35	56.2	56.2	56.2	27	22.7	4	10	292	0.00	29.973 
14:40	56.3	56.3	56.3	27	22.8	4	12	270	0.00	29.973 
14:45	56.6	56.6	56.6	28	23.9	4	12	270	0.00	29.975 
14:50	57.0	57.0	57.0	26	22.5	4	10	270	0.00	29.975 
14:55	56.7	56.7	56.7	26	22.2	5	10	270	0.00	29.975 
15:00	56.3	56.3	56.3	27	22.8	4	10	270	0.00	29.974 
15:05	56.5	56.5	56.5	27	22.9	4	9	292	0.00	29.974 
15:10	56.7	56.7	56.7	27	23.1	5	11	270	0.00	29.974 
15:15	56.9	56.9	56.9	27	23.3	5	11	338	0.00	29.972 
15:20	56.9	56.9	56.9	27	23.3	5	12	315	0.00	29.972 
15:25	56.5	56.5	56.5	28	23.8	3	9	292	0.00	29.972 
15:30	56.5	56.5	56.5	28	23.8	6	15	315	0.00	29.976 
15:35	56.6	56.6	56.6	28	23.9	3	10	270	0.00	29.976 
15:40	56.7	56.7	56.7	28	24.0	3	7	270	0.00	29.976 
15:45	56.9	56.9	56.9	28	24.1	5	8	270	0.00	29.975 
15:50	57.5	57.5	57.5	28	24.7	5	12	270	0.00	29.975 
15:55	56.9	56.9	56.9	28	24.1	5	13	292	0.00	29.975 
16:00	56.7	56.7	56.7	28	24.0	4	9	292	0.00	29.970 
16:05	57.0	57.0	57.0	28	24.2	4	10	270	0.00	29.970 
16:10	57.2	57.2	57.2	27	23.5	3	9	270	0.00	29.970 
16:15	57.5	57.5	57.5	27	23.8	4	7	270	0.00	29.964 
16:20	57.8	57.8	57.8	28	24.9	3	6	292	0.00	29.964 
16:25	57.5	57.5	57.5	27	23.8	4	9	248	0.00	29.964 
16:30	57.5	57.5	57.5	28	24.7	3	9	270	0.00	29.962 
16:35	57.8	57.8	57.8	28	24.9	3	6	292	0.00	29.962 
16:40	57.5	57.5	57.5	28	24.7	4	9	270	0.00	29.962 
16:45	57.6	57.6	57.6	28	24.7	3	9	270	0.00	29.962 
16:50	57.5	57.5	57.5	28	24.7	4	10	270	0.00	29.962 
16:55	57.3	57.3	57.3	28	24.5	5	10	292	0.00	29.962 
17:00	57.5	57.5	57.5	27	23.8	4	9	270	0.00	29.962 
17:05	57.5	57.5	57.5	28	24.7	4	11	270	0.00	29.962 
17:10	57.0	57.0	57.0	28	24.2	4	7	270	0.00	29.962 
17:15	56.6	56.6	56.6	28	23.9	4	11	270	0.00	29.961 
17:20	56.5	56.5	56.5	28	23.8	4	6	270	0.00	29.961 
17:25	56.5	56.5	56.5	29	24.6	2	6	270	0.00	29.961 
17:30	56.6	56.6	56.6	28	23.9	4	8	292	0.00	29.958 
17:35	56.6	56.6	56.6	28	23.9	4	9	292	0.00	29.958 
17:40	56.9	56.9	56.9	29	25.0	2	5	270	0.00	29.958 
17:45	57.2	57.2	57.2	28	24.4	3	10	270	0.00	29.963 
17:50	57.0	57.0	57.0	28	24.2	4	7	270	0.00	29.963 
17:55	56.9	56.9	56.9	28	24.1	4	9	270	0.00	29.963 
18:00	56.6	56.6	56.6	30	25.5	4	10	270	0.00	29.963 
18:05	56.5	56.5	56.5	29	24.6	3	7	270	0.00	29.963 
18:10	56.5	56.5	56.5	30	25.4	2	9	292	0.00	29.963 
18:15	56.3	56.3	56.3	31	26.1	2	9	338	0.00	29.959 
18:20	56.3	56.3	56.3	31	26.1	1	4	315	0.00	29.959 
18:25	56.3	56.3	56.3	31	26.1	2	4	270	0.00	29.959 
18:30	56.2	56.2	56.2	31	26.0	1	3	270	0.00	29.957 
18:35	56.2	56.2	56.2	32	26.7	1	3	270	0.00	29.957 
18:40	56.0	56.0	56.0	33	27.3	0	2	270	0.00	29.957 
18:45	56.0	56.0	56.0	32	26.6	1	3	270	0.00	29.955 
18:50	56.0	56.0	56.0	33	27.3	1	5	270	0.00	29.955 
18:55	56.0	56.0	56.0	34	28.0	1	5	270	0.00	29.955 
19:00	56.0	56.0	56.0	34	28.0	1	4	270	0.00	29.950 
19:05	56.0	56.0	56.0	35	28.7	1	3	270	0.00	29.950 
19:10	55.9	55.9	55.9	35	28.7	1	2	270	0.00	29.950 
19:15	55.7	55.7	55.7	35	28.5	1	2	270	0.00	29.953 
19:20	55.6	55.6	55.6	36	29.1	0	2	270	0.00	29.953 
19:25	55.4	55.4	55.4	37	29.6	0	4	270	0.00	29.953 
19:30	55.4	55.4	55.4	35	28.2	2	4	248	0.00	29.951 
19:35	55.4	55.4	55.4	35	28.2	1	4	270	0.00	29.951 
19:40	55.4	55.4	55.4	35	28.2	1	3	270	0.00	29.951 
19:45	55.3	55.3	55.3	35	28.1	1	4	315	0.00	29.946 
19:50	55.3	55.3	55.3	36	28.8	1	3	270	0.00	29.946 
19:55	55.1	55.1	55.1	36	28.6	0	1	270	0.00	29.946 
20:00	54.8	54.8	54.8	37	29.0	0	1	270	0.00	29.941 
20:05	54.5	54.5	54.5	37	28.8	0	1	270	0.00	29.941 
20:10	54.2	54.2	54.2	38	29.2	0	0	---	0.00	29.941 
20:15	53.9	53.9	53.9	38	28.9	0	1	270	0.00	29.940 
20:20	53.9	53.9	53.9	39	29.5	0	1	270	0.00	29.940 
20:25	53.6	53.6	53.6	39	29.3	0	0	---	0.00	29.940 
20:30	53.5	53.5	53.5	40	29.8	0	1	270	0.00	29.944 
20:35	53.2	53.2	53.2	40	29.5	0	0	---	0.00	29.944 
20:40	53.1	53.1	53.1	41	30.0	0	1	270	0.00	29.944 
20:45	53.1	53.1	53.1	41	30.0	0	1	270	0.00	29.946 
20:50	53.1	53.1	53.1	41	30.0	0	0	---	0.00	29.946 
20:55	53.1	53.1	53.1	42	30.6	0	1	270	0.00	29.946 
21:00	53.1	53.1	53.1	42	30.6	0	1	270	0.00	29.955 
21:05	53.1	53.1	53.1	42	30.6	0	1	270	0.00	29.955 
21:10	52.9	52.9	52.9	43	31.0	0	2	270	0.00	29.955 
21:15	53.3	53.3	53.3	43	31.4	2	4	270	0.00	29.967 
21:20	53.8	53.8	53.8	47	34.0	3	5	270	0.00	29.967 
21:25	53.9	53.9	53.9	46	33.6	2	7	270	0.00	29.967 
21:30	53.9	53.9	53.9	45	33.1	2	4	248	0.00	29.977 
21:35	53.8	53.8	53.8	46	33.5	2	3	248	0.00	29.977 
21:40	53.5	53.5	53.5	49	34.8	3	6	270	0.00	29.977 
21:45	52.9	52.9	52.9	54	36.7	1	4	270	0.00	29.993 
21:50	52.2	52.2	52.2	57	37.4	1	5	225	0.00	29.993 
21:55	51.6	51.6	51.6	60	38.2	1	5	248	0.00	29.993 
22:00	51.0	51.0	51.0	62	38.4	1	3	270	0.00	29.998 
22:05	50.4	50.4	50.4	63	38.3	1	4	270	0.01	29.998 
22:10	49.9	49.9	49.9	65	38.6	0	3	270	0.00	29.998 
22:15	49.6	49.6	49.6	67	39.1	0	1	270	0.00	29.992 
22:20	49.4	49.4	49.4	68	39.3	0	2	270	0.00	29.992 
22:25	49.2	49.2	49.2	69	39.5	0	1	270	0.00	29.992 
22:30	48.9	48.9	48.9	70	39.6	0	1	270	0.00	29.986 
22:35	48.8	48.8	48.8	71	39.8	0	0	---	0.00	29.986 
22:40	48.5	48.5	48.5	72	39.9	0	0	---	0.00	29.986 
22:45	48.3	48.3	48.3	74	40.4	0	0	---	0.00	29.968 
22:50	48.2	48.2	48.2	75	40.7	0	1	270	0.00	29.968 
22:55	48.0	48.0	48.0	77	41.1	0	1	270	0.00	29.968 
23:00	47.7	47.7	47.7	78	41.2	0	0	---	0.00	29.946 
23:05	47.4	47.4	47.4	79	41.2	0	0	---	0.00	29.946 
23:10	47.3	47.3	47.3	80	41.4	0	1	270	0.00	29.946 
23:15	47.1	47.1	47.1	80	41.3	0	0	---	0.00	29.930 
23:20	47.0	47.0	47.0	80	41.2	0	0	---	0.00	29.930 
23:25	46.8	46.8	46.8	81	41.3	0	0	---	0.00	29.930 
23:30	46.5	46.5	46.5	81	41.0	0	1	270	0.00	29.921 
23:35	46.4	46.4	46.4	81	40.9	0	0	---	0.00	29.921 
23:40	46.2	46.2	46.2	81	40.7	0	1	270	0.00	29.921 
23:45	46.2	46.2	46.2	81	40.7	0	1	270	0.00	29.914 
23:50	46.1	46.1	46.1	81	40.6	0	0	---	0.00	29.914 
23:55	46.1	46.1	46.1	81	40.6	0	0	---	0.00	29.914 

CoCoRaHS
IN-AL-39
A2 Web Hosting
Creative Commons License
GoDaddy
search engine by freefind advanced

loaded 2018-11-16 23:51:35 • last modified 2010-11-18 10:43:29
Privacy PolicyDisclaimer
• wx.awcolley.com is powered by PmWiki v.2002016 •
• all content (unless otherwise noted) © 2018 A W Colley